sensor_id;sensor_type;location;lat;lon;timestamp;pressure;altitude;pressure_sealevel;temperature;humidity
71151;BME280;59071;42.138;24.768;2023-09-19T00:00:20;100085.22;;;20.98;54.59
71151;BME280;59071;42.138;24.768;2023-09-19T00:02:52;100073.28;;;20.99;54.41
71151;BME280;59071;42.138;24.768;2023-09-19T00:05:18;100082.50;;;21.03;54.43
71151;BME280;59071;42.138;24.768;2023-09-19T00:07:44;100071.13;;;20.96;54.30
71151;BME280;59071;42.138;24.768;2023-09-19T00:10:10;100081.38;;;20.94;54.86
71151;BME280;59071;42.138;24.768;2023-09-19T00:12:35;100074.31;;;20.88;54.56
71151;BME280;59071;42.138;24.768;2023-09-19T00:15:01;100077.03;;;20.88;54.88
71151;BME280;59071;42.138;24.768;2023-09-19T00:17:30;100079.72;;;20.88;55.10
71151;BME280;59071;42.138;24.768;2023-09-19T00:19:57;100070.81;;;20.87;54.99
71151;BME280;59071;42.138;24.768;2023-09-19T00:22:22;100073.19;;;20.74;55.23
71151;BME280;59071;42.138;24.768;2023-09-19T00:24:48;100068.28;;;20.70;55.54
71151;BME280;59071;42.138;24.768;2023-09-19T00:27:13;100069.13;;;20.76;55.40
71151;BME280;59071;42.138;24.768;2023-09-19T00:29:38;100076.47;;;20.86;55.26
71151;BME280;59071;42.138;24.768;2023-09-19T00:32:04;100075.97;;;20.89;55.22
71151;BME280;59071;42.138;24.768;2023-09-19T00:34:32;100076.25;;;20.93;55.24
71151;BME280;59071;42.138;24.768;2023-09-19T00:36:59;100063.13;;;20.64;54.92
71151;BME280;59071;42.138;24.768;2023-09-19T00:39:24;100065.09;;;20.74;55.05
71151;BME280;59071;42.138;24.768;2023-09-19T00:41:51;100066.22;;;20.83;54.42
71151;BME280;59071;42.138;24.768;2023-09-19T00:44:16;100069.22;;;20.92;54.12
71151;BME280;59071;42.138;24.768;2023-09-19T00:46:43;100070.31;;;20.91;54.03
71151;BME280;59071;42.138;24.768;2023-09-19T00:49:09;100062.19;;;20.91;53.62
71151;BME280;59071;42.138;24.768;2023-09-19T00:51:35;100066.53;;;20.97;53.86
71151;BME280;59071;42.138;24.768;2023-09-19T00:54:02;100057.81;;;20.84;53.92
71151;BME280;59071;42.138;24.768;2023-09-19T00:56:28;100063.22;;;20.79;53.56
71151;BME280;59071;42.138;24.768;2023-09-19T00:58:53;100060.47;;;20.74;53.84
71151;BME280;59071;42.138;24.768;2023-09-19T01:01:19;100061.31;;;20.80;53.42
71151;BME280;59071;42.138;24.768;2023-09-19T01:03:45;100062.59;;;20.67;53.12
71151;BME280;59071;42.138;24.768;2023-09-19T01:06:10;100062.38;;;20.74;53.55
71151;BME280;59071;42.138;24.768;2023-09-19T01:08:36;100057.19;;;20.67;52.99
71151;BME280;59071;42.138;24.768;2023-09-19T01:11:16;100058.31;;;20.76;52.91
71151;BME280;59071;42.138;24.768;2023-09-19T01:14:01;100064.19;;;20.63;52.75
71151;BME280;59071;42.138;24.768;2023-09-19T01:16:46;100060.88;;;20.56;52.49
71151;BME280;59071;42.138;24.768;2023-09-19T01:30:16;100060.50;;;20.37;52.62
71151;BME280;59071;42.138;24.768;2023-09-19T01:32:42;100059.75;;;20.46;52.19
71151;BME280;59071;42.138;24.768;2023-09-19T01:35:08;100054.31;;;20.41;52.58
71151;BME280;59071;42.138;24.768;2023-09-19T01:37:37;100059.44;;;20.38;52.86
71151;BME280;59071;42.138;24.768;2023-09-19T01:40:13;100058.69;;;20.10;53.17
71151;BME280;59071;42.138;24.768;2023-09-19T01:42:48;100057.63;;;20.11;53.30
71151;BME280;59071;42.138;24.768;2023-09-19T01:48:13;100061.28;;;19.95;54.36
71151;BME280;59071;42.138;24.768;2023-09-19T01:50:52;100056.41;;;19.91;54.38
71151;BME280;59071;42.138;24.768;2023-09-19T01:53:29;100061.97;;;19.80;54.79
71151;BME280;59071;42.138;24.768;2023-09-19T01:55:57;100049.13;;;19.92;53.78
71151;BME280;59071;42.138;24.768;2023-09-19T01:58:36;100055.13;;;19.72;54.64
71151;BME280;59071;42.138;24.768;2023-09-19T02:01:04;100051.03;;;19.69;54.20
71151;BME280;59071;42.138;24.768;2023-09-19T02:03:33;100056.66;;;19.63;54.66
71151;BME280;59071;42.138;24.768;2023-09-19T02:05:59;100046.16;;;19.66;54.37
71151;BME280;59071;42.138;24.768;2023-09-19T02:08:25;100046.69;;;19.68;54.59
71151;BME280;59071;42.138;24.768;2023-09-19T02:10:51;100057.00;;;19.71;54.10
71151;BME280;59071;42.138;24.768;2023-09-19T02:13:22;100039.09;;;19.60;54.97
71151;BME280;59071;42.138;24.768;2023-09-19T02:15:53;100046.59;;;19.80;54.39
71151;BME280;59071;42.138;24.768;2023-09-19T02:18:18;100044.59;;;19.70;54.60
71151;BME280;59071;42.138;24.768;2023-09-19T02:20:45;100045.25;;;19.56;54.64
71151;BME280;59071;42.138;24.768;2023-09-19T02:23:12;100033.19;;;19.63;54.54
71151;BME280;59071;42.138;24.768;2023-09-19T02:25:38;100028.09;;;19.67;54.57
71151;BME280;59071;42.138;24.768;2023-09-19T02:28:06;100035.41;;;19.71;54.63
71151;BME280;59071;42.138;24.768;2023-09-19T02:30:32;100034.09;;;19.74;54.77
71151;BME280;59071;42.138;24.768;2023-09-19T02:32:58;100028.41;;;19.70;54.84
71151;BME280;59071;42.138;24.768;2023-09-19T02:35:27;100031.41;;;19.74;54.85
71151;BME280;59071;42.138;24.768;2023-09-19T02:37:53;100034.16;;;19.79;54.19
71151;BME280;59071;42.138;24.768;2023-09-19T02:40:18;100044.69;;;19.81;54.34
71151;BME280;59071;42.138;24.768;2023-09-19T02:42:47;100040.50;;;19.68;54.33
71151;BME280;59071;42.138;24.768;2023-09-19T02:45:18;100045.91;;;19.68;54.44
71151;BME280;59071;42.138;24.768;2023-09-19T02:47:44;100027.22;;;19.61;54.31
71151;BME280;59071;42.138;24.768;2023-09-19T02:50:10;100034.78;;;19.59;54.67
71151;BME280;59071;42.138;24.768;2023-09-19T02:52:36;100035.09;;;19.68;54.99
71151;BME280;59071;42.138;24.768;2023-09-19T02:55:02;100032.09;;;19.64;54.99
71151;BME280;59071;42.138;24.768;2023-09-19T02:57:29;100034.00;;;19.64;54.95
71151;BME280;59071;42.138;24.768;2023-09-19T02:59:56;100036.44;;;19.65;54.71
71151;BME280;59071;42.138;24.768;2023-09-19T03:02:21;100032.94;;;19.65;54.49
71151;BME280;59071;42.138;24.768;2023-09-19T03:04:49;100041.03;;;19.65;54.57
71151;BME280;59071;42.138;24.768;2023-09-19T03:07:16;100032.97;;;19.70;54.41
71151;BME280;59071;42.138;24.768;2023-09-19T03:09:42;100031.44;;;19.79;54.44
71151;BME280;59071;42.138;24.768;2023-09-19T03:12:08;100034.28;;;19.67;54.01
71151;BME280;59071;42.138;24.768;2023-09-19T03:14:33;100037.25;;;19.66;53.96
71151;BME280;59071;42.138;24.768;2023-09-19T03:17:01;100034.84;;;19.69;53.89
71151;BME280;59071;42.138;24.768;2023-09-19T03:19:26;100030.25;;;19.70;53.93
71151;BME280;59071;42.138;24.768;2023-09-19T03:21:52;100025.03;;;19.58;53.43
71151;BME280;59071;42.138;24.768;2023-09-19T03:24:18;100034.78;;;19.59;53.96
71151;BME280;59071;42.138;24.768;2023-09-19T03:26:44;100036.88;;;19.57;54.09
71151;BME280;59071;42.138;24.768;2023-09-19T03:29:10;100033.38;;;19.57;53.63
71151;BME280;59071;42.138;24.768;2023-09-19T03:31:36;100023.91;;;19.54;53.76
71151;BME280;59071;42.138;24.768;2023-09-19T03:34:02;100032.50;;;19.51;53.53
71151;BME280;59071;42.138;24.768;2023-09-19T03:36:29;100026.78;;;19.42;53.53
71151;BME280;59071;42.138;24.768;2023-09-19T03:38:55;100031.88;;;19.39;54.11
71151;BME280;59071;42.138;24.768;2023-09-19T03:41:20;100025.75;;;19.21;54.38
71151;BME280;59071;42.138;24.768;2023-09-19T03:43:45;100024.06;;;19.15;54.23
71151;BME280;59071;42.138;24.768;2023-09-19T03:46:11;100016.66;;;19.05;54.69
71151;BME280;59071;42.138;24.768;2023-09-19T03:48:37;100019.75;;;19.14;54.65
71151;BME280;59071;42.138;24.768;2023-09-19T03:51:03;100030.88;;;19.23;54.81
71151;BME280;59071;42.138;24.768;2023-09-19T03:53:28;100031.16;;;19.21;54.45
71151;BME280;59071;42.138;24.768;2023-09-19T03:55:54;100037.66;;;19.25;54.20
71151;BME280;59071;42.138;24.768;2023-09-19T03:58:20;100032.53;;;19.24;53.92
71151;BME280;59071;42.138;24.768;2023-09-19T04:00:45;100034.34;;;19.18;54.30
71151;BME280;59071;42.138;24.768;2023-09-19T04:03:11;100036.56;;;19.21;54.77
71151;BME280;59071;42.138;24.768;2023-09-19T04:05:44;100036.34;;;19.28;54.73
71151;BME280;59071;42.138;24.768;2023-09-19T04:08:10;100043.56;;;19.22;53.95
71151;BME280;59071;42.138;24.768;2023-09-19T04:10:36;100042.38;;;19.13;54.48
71151;BME280;59071;42.138;24.768;2023-09-19T04:13:01;100036.09;;;19.07;54.63
71151;BME280;59071;42.138;24.768;2023-09-19T04:15:27;100042.66;;;19.11;54.38
71151;BME280;59071;42.138;24.768;2023-09-19T04:17:52;100043.72;;;18.71;55.56
71151;BME280;59071;42.138;24.768;2023-09-19T04:20:18;100043.81;;;18.76;55.81
71151;BME280;59071;42.138;24.768;2023-09-19T04:22:50;100039.72;;;18.91;56.23
71151;BME280;59071;42.138;24.768;2023-09-19T04:25:16;100038.38;;;19.16;55.09
71151;BME280;59071;42.138;24.768;2023-09-19T04:27:41;100039.97;;;19.39;54.78
71151;BME280;59071;42.138;24.768;2023-09-19T04:30:07;100037.50;;;19.64;53.56
71151;BME280;59071;42.138;24.768;2023-09-19T04:32:38;100035.91;;;19.96;60.27
71151;BME280;59071;42.138;24.768;2023-09-19T04:35:09;100047.09;;;21.10;61.87
71151;BME280;59071;42.138;24.768;2023-09-19T04:37:39;100041.25;;;21.64;49.71
71151;BME280;59071;42.138;24.768;2023-09-19T04:40:08;100039.91;;;21.72;48.51
71151;BME280;59071;42.138;24.768;2023-09-19T04:42:39;100044.78;;;21.50;49.13
71151;BME280;59071;42.138;24.768;2023-09-19T04:45:04;100043.16;;;21.48;49.03
71151;BME280;59071;42.138;24.768;2023-09-19T04:47:30;100034.19;;;21.43;49.48
71151;BME280;59071;42.138;24.768;2023-09-19T04:49:55;100040.19;;;21.55;49.88
71151;BME280;59071;42.138;24.768;2023-09-19T04:52:21;100035.59;;;21.66;48.90
71151;BME280;59071;42.138;24.768;2023-09-19T04:54:47;100032.91;;;21.76;49.27
71151;BME280;59071;42.138;24.768;2023-09-19T04:57:13;100046.69;;;22.11;48.65
71151;BME280;59071;42.138;24.768;2023-09-19T04:59:39;100038.00;;;22.39;47.92
71151;BME280;59071;42.138;24.768;2023-09-19T05:02:06;100042.81;;;22.58;46.91
71151;BME280;59071;42.138;24.768;2023-09-19T05:04:33;100036.78;;;22.81;46.21
71151;BME280;59071;42.138;24.768;2023-09-19T05:06:58;100039.44;;;22.92;45.25
71151;BME280;59071;42.138;24.768;2023-09-19T05:09:26;100029.22;;;23.33;44.98
71151;BME280;59071;42.138;24.768;2023-09-19T05:11:51;100033.38;;;23.60;44.17
71151;BME280;59071;42.138;24.768;2023-09-19T05:14:18;100037.31;;;23.78;43.58
71151;BME280;59071;42.138;24.768;2023-09-19T05:16:44;100044.41;;;24.08;43.13
71151;BME280;59071;42.138;24.768;2023-09-19T05:19:09;100045.09;;;24.48;42.02
71151;BME280;59071;42.138;24.768;2023-09-19T05:21:36;100047.41;;;24.84;41.43
71151;BME280;59071;42.138;24.768;2023-09-19T05:24:05;100040.53;;;25.11;40.90
71151;BME280;59071;42.138;24.768;2023-09-19T05:26:32;100045.97;;;25.35;40.51
71151;BME280;59071;42.138;24.768;2023-09-19T05:28:57;100046.84;;;25.49;39.93
71151;BME280;59071;42.138;24.768;2023-09-19T05:31:23;100031.03;;;25.84;39.16
71151;BME280;59071;42.138;24.768;2023-09-19T05:33:49;100042.66;;;26.37;38.52
71151;BME280;59071;42.138;24.768;2023-09-19T05:36:15;100043.41;;;26.70;37.70
71151;BME280;59071;42.138;24.768;2023-09-19T05:38:42;100052.28;;;26.89;37.19
71151;BME280;59071;42.138;24.768;2023-09-19T05:41:08;100061.66;;;27.11;36.91
71151;BME280;59071;42.138;24.768;2023-09-19T05:43:35;100055.72;;;27.45;36.18
71151;BME280;59071;42.138;24.768;2023-09-19T05:46:03;100051.22;;;27.41;35.82
71151;BME280;59071;42.138;24.768;2023-09-19T05:48:28;100063.94;;;27.68;35.52
71151;BME280;59071;42.138;24.768;2023-09-19T05:50:54;100061.53;;;28.12;34.72
71151;BME280;59071;42.138;24.768;2023-09-19T05:53:19;100058.69;;;28.17;34.51
71151;BME280;59071;42.138;24.768;2023-09-19T05:55:45;100054.72;;;28.63;34.37
71151;BME280;59071;42.138;24.768;2023-09-19T05:58:11;100059.88;;;28.64;33.61
71151;BME280;59071;42.138;24.768;2023-09-19T06:00:39;100055.41;;;28.37;34.15
71151;BME280;59071;42.138;24.768;2023-09-19T06:03:07;100052.56;;;28.51;33.94
71151;BME280;59071;42.138;24.768;2023-09-19T06:05:33;100046.72;;;28.84;33.26
71151;BME280;59071;42.138;24.768;2023-09-19T06:07:58;100042.56;;;28.95;32.86
71151;BME280;59071;42.138;24.768;2023-09-19T06:10:33;100032.97;;;29.33;32.52
71151;BME280;59071;42.138;24.768;2023-09-19T06:13:01;100028.09;;;29.65;32.30
71151;BME280;59071;42.138;24.768;2023-09-19T06:15:29;100015.97;;;29.92;31.70
71151;BME280;59071;42.138;24.768;2023-09-19T06:17:58;100026.81;;;30.27;30.99
71151;BME280;59071;42.138;24.768;2023-09-19T06:20:25;100036.44;;;30.80;30.48
71151;BME280;59071;42.138;24.768;2023-09-19T06:22:51;100037.44;;;31.05;30.24
71151;BME280;59071;42.138;24.768;2023-09-19T06:25:17;100037.34;;;31.23;29.95
71151;BME280;59071;42.138;24.768;2023-09-19T06:27:48;100042.00;;;31.43;29.45
71151;BME280;59071;42.138;24.768;2023-09-19T06:30:14;100031.75;;;31.52;30.04
71151;BME280;59071;42.138;24.768;2023-09-19T06:32:43;100038.25;;;31.69;30.25
71151;BME280;59071;42.138;24.768;2023-09-19T06:35:15;100030.63;;;31.53;29.59
71151;BME280;59071;42.138;24.768;2023-09-19T06:37:41;100040.25;;;31.38;30.36
71151;BME280;59071;42.138;24.768;2023-09-19T06:40:14;100027.97;;;31.78;29.90
71151;BME280;59071;42.138;24.768;2023-09-19T06:42:52;100035.97;;;31.71;29.86
71151;BME280;59071;42.138;24.768;2023-09-19T06:45:21;100024.47;;;32.02;28.95
71151;BME280;59071;42.138;24.768;2023-09-19T06:47:48;100029.56;;;32.12;29.12
71151;BME280;59071;42.138;24.768;2023-09-19T06:50:15;100039.97;;;32.07;29.37
71151;BME280;59071;42.138;24.768;2023-09-19T06:52:43;100019.16;;;32.67;28.47
71151;BME280;59071;42.138;24.768;2023-09-19T06:55:09;100026.16;;;32.65;28.66
71151;BME280;59071;42.138;24.768;2023-09-19T06:57:41;100021.19;;;32.33;28.66
71151;BME280;59071;42.138;24.768;2023-09-19T07:00:08;100020.28;;;32.42;28.33
71151;BME280;59071;42.138;24.768;2023-09-19T07:02:39;100019.38;;;31.92;28.31
71151;BME280;59071;42.138;24.768;2023-09-19T07:05:06;100014.13;;;31.99;28.75
71151;BME280;59071;42.138;24.768;2023-09-19T07:07:32;100017.69;;;31.87;29.15
71151;BME280;59071;42.138;24.768;2023-09-19T07:10:03;100010.09;;;31.84;29.53
71151;BME280;59071;42.138;24.768;2023-09-19T07:12:32;100013.56;;;31.93;29.29
71151;BME280;59071;42.138;24.768;2023-09-19T07:14:58;100009.59;;;32.03;29.82
71151;BME280;59071;42.138;24.768;2023-09-19T07:17:23;100001.91;;;32.21;29.27
71151;BME280;59071;42.138;24.768;2023-09-19T07:19:49;100015.88;;;32.04;29.00
71151;BME280;59071;42.138;24.768;2023-09-19T07:22:15;100011.72;;;31.52;29.55
71151;BME280;59071;42.138;24.768;2023-09-19T07:24:41;100011.19;;;31.71;29.27
71151;BME280;59071;42.138;24.768;2023-09-19T07:27:06;100015.84;;;31.91;29.23
71151;BME280;59071;42.138;24.768;2023-09-19T07:29:32;100009.81;;;32.23;29.14
71151;BME280;59071;42.138;24.768;2023-09-19T07:31:57;100007.31;;;32.30;28.97
71151;BME280;59071;42.138;24.768;2023-09-19T07:34:23;99998.59;;;32.03;29.61
71151;BME280;59071;42.138;24.768;2023-09-19T07:36:48;100005.31;;;31.93;29.00
71151;BME280;59071;42.138;24.768;2023-09-19T07:39:14;100003.75;;;31.17;30.39
71151;BME280;59071;42.138;24.768;2023-09-19T07:41:39;99998.69;;;32.07;29.86
71151;BME280;59071;42.138;24.768;2023-09-19T07:44:04;99993.81;;;32.62;28.64
71151;BME280;59071;42.138;24.768;2023-09-19T07:46:30;99986.84;;;32.92;27.92
71151;BME280;59071;42.138;24.768;2023-09-19T07:48:57;99985.84;;;33.25;28.15
71151;BME280;59071;42.138;24.768;2023-09-19T07:51:22;99981.13;;;33.54;27.61
71151;BME280;59071;42.138;24.768;2023-09-19T07:53:48;99980.53;;;33.61;27.52
71151;BME280;59071;42.138;24.768;2023-09-19T07:56:14;99986.50;;;33.35;27.28
71151;BME280;59071;42.138;24.768;2023-09-19T07:58:40;99983.97;;;33.42;27.31
71151;BME280;59071;42.138;24.768;2023-09-19T08:01:10;99981.13;;;33.26;27.90
71151;BME280;59071;42.138;24.768;2023-09-19T08:03:36;99972.84;;;32.98;27.65
71151;BME280;59071;42.138;24.768;2023-09-19T08:06:06;99962.41;;;32.91;28.44
71151;BME280;59071;42.138;24.768;2023-09-19T08:08:33;99959.25;;;33.17;27.31
71151;BME280;59071;42.138;24.768;2023-09-19T08:11:08;99968.16;;;32.86;28.00
71151;BME280;59071;42.138;24.768;2023-09-19T08:13:40;99958.38;;;33.29;27.84
71151;BME280;59071;42.138;24.768;2023-09-19T08:16:09;99956.53;;;33.77;27.44
71151;BME280;59071;42.138;24.768;2023-09-19T08:18:36;99957.78;;;34.12;26.93
71151;BME280;59071;42.138;24.768;2023-09-19T08:21:02;99950.06;;;34.69;26.14
71151;BME280;59071;42.138;24.768;2023-09-19T08:23:27;99955.31;;;34.93;25.77
71151;BME280;59071;42.138;24.768;2023-09-19T08:25:57;99951.91;;;34.64;26.16
71151;BME280;59071;42.138;24.768;2023-09-19T08:28:23;99948.78;;;33.83;25.95
71151;BME280;59071;42.138;24.768;2023-09-19T08:30:50;99944.03;;;33.52;26.31
71151;BME280;59071;42.138;24.768;2023-09-19T08:33:16;99945.00;;;33.03;26.99
71151;BME280;59071;42.138;24.768;2023-09-19T08:35:41;99933.28;;;33.18;26.78
71151;BME280;59071;42.138;24.768;2023-09-19T08:38:09;99932.38;;;32.73;27.14
71151;BME280;59071;42.138;24.768;2023-09-19T08:40:38;99935.50;;;32.60;27.53
71151;BME280;59071;42.138;24.768;2023-09-19T08:43:05;99918.16;;;33.12;27.15
71151;BME280;59071;42.138;24.768;2023-09-19T08:45:33;99922.38;;;33.09;27.45
71151;BME280;59071;42.138;24.768;2023-09-19T08:51:10;99913.63;;;33.64;27.30
71151;BME280;59071;42.138;24.768;2023-09-19T08:56:12;99916.22;;;34.20;26.42
71151;BME280;59071;42.138;24.768;2023-09-19T08:58:47;99909.81;;;33.84;26.31
71151;BME280;59071;42.138;24.768;2023-09-19T09:01:15;99906.69;;;34.18;25.96
71151;BME280;59071;42.138;24.768;2023-09-19T09:03:42;99908.97;;;34.32;26.00
71151;BME280;59071;42.138;24.768;2023-09-19T09:06:14;99911.03;;;33.87;25.69
71151;BME280;59071;42.138;24.768;2023-09-19T09:08:40;99904.13;;;33.05;26.73
71151;BME280;59071;42.138;24.768;2023-09-19T09:11:06;99908.72;;;32.72;27.06
71151;BME280;59071;42.138;24.768;2023-09-19T09:13:34;99899.56;;;32.97;27.40
71151;BME280;59071;42.138;24.768;2023-09-19T09:16:00;99890.34;;;33.05;27.32
71151;BME280;59071;42.138;24.768;2023-09-19T09:18:26;99889.25;;;33.22;27.07
71151;BME280;59071;42.138;24.768;2023-09-19T09:20:51;99886.81;;;33.48;27.09
71151;BME280;59071;42.138;24.768;2023-09-19T09:23:17;99882.22;;;33.84;26.80
71151;BME280;59071;42.138;24.768;2023-09-19T09:25:53;99889.69;;;33.68;26.31
71151;BME280;59071;42.138;24.768;2023-09-19T09:28:21;99878.09;;;33.62;26.27
71151;BME280;59071;42.138;24.768;2023-09-19T09:30:47;99877.72;;;33.04;26.85
71151;BME280;59071;42.138;24.768;2023-09-19T09:33:14;99878.13;;;33.18;26.99
71151;BME280;59071;42.138;24.768;2023-09-19T09:35:54;99876.75;;;33.24;27.47
71151;BME280;59071;42.138;24.768;2023-09-19T09:41:09;99857.41;;;32.15;28.71
71151;BME280;59071;42.138;24.768;2023-09-19T09:43:39;99864.25;;;33.15;27.61
71151;BME280;59071;42.138;24.768;2023-09-19T09:46:16;99869.03;;;33.62;27.32
71151;BME280;59071;42.138;24.768;2023-09-19T09:48:56;99864.31;;;33.94;26.84
71151;BME280;59071;42.138;24.768;2023-09-19T09:54:23;99858.56;;;34.54;25.75
71151;BME280;59071;42.138;24.768;2023-09-19T09:56:53;99851.88;;;34.75;25.46
71151;BME280;59071;42.138;24.768;2023-09-19T09:59:21;99847.75;;;33.46;26.02
71151;BME280;59071;42.138;24.768;2023-09-19T10:01:49;99841.72;;;32.56;27.20
71151;BME280;59071;42.138;24.768;2023-09-19T10:04:35;99847.22;;;31.66;28.49
71151;BME280;59071;42.138;24.768;2023-09-19T10:07:30;99841.72;;;31.66;28.77
71151;BME280;59071;42.138;24.768;2023-09-19T10:10:04;99846.66;;;31.40;28.73
71151;BME280;59071;42.138;24.768;2023-09-19T10:12:42;99843.31;;;31.67;28.87
71151;BME280;59071;42.138;24.768;2023-09-19T10:15:11;99836.03;;;32.37;27.85
71151;BME280;59071;42.138;24.768;2023-09-19T10:17:38;99832.78;;;32.87;27.42
71151;BME280;59071;42.138;24.768;2023-09-19T10:20:09;99834.66;;;33.43;27.13
71151;BME280;59071;42.138;24.768;2023-09-19T10:22:48;99823.47;;;33.68;27.03
71151;BME280;59071;42.138;24.768;2023-09-19T10:25:27;99828.25;;;33.87;26.50
71151;BME280;59071;42.138;24.768;2023-09-19T10:28:02;99824.81;;;34.09;26.38
71151;BME280;59071;42.138;24.768;2023-09-19T10:30:31;99816.59;;;33.62;26.06
71151;BME280;59071;42.138;24.768;2023-09-19T10:33:03;99822.72;;;34.03;25.88
71151;BME280;59071;42.138;24.768;2023-09-19T10:35:32;99816.06;;;33.88;26.52
71151;BME280;59071;42.138;24.768;2023-09-19T10:38:00;99815.59;;;34.18;25.96
71151;BME280;59071;42.138;24.768;2023-09-19T10:40:29;99809.91;;;34.30;25.79
71151;BME280;59071;42.138;24.768;2023-09-19T10:43:03;99805.56;;;33.94;26.30
71151;BME280;59071;42.138;24.768;2023-09-19T10:45:33;99797.22;;;34.25;25.82
71151;BME280;59071;42.138;24.768;2023-09-19T10:47:59;99795.00;;;34.35;26.29
71151;BME280;59071;42.138;24.768;2023-09-19T10:50:28;99791.69;;;34.64;25.68
71151;BME280;59071;42.138;24.768;2023-09-19T10:53:00;99783.22;;;34.96;25.37
71151;BME280;59071;42.138;24.768;2023-09-19T10:55:31;99783.31;;;34.80;25.15
71151;BME280;59071;42.138;24.768;2023-09-19T10:57:58;99780.75;;;34.91;25.37
71151;BME280;59071;42.138;24.768;2023-09-19T11:00:25;99787.56;;;34.97;25.19
71151;BME280;59071;42.138;24.768;2023-09-19T11:05:39;99774.75;;;34.66;25.50
71151;BME280;59071;42.138;24.768;2023-09-19T11:08:06;99769.63;;;32.95;26.63
71151;BME280;59071;42.138;24.768;2023-09-19T11:26:44;99745.50;;;34.65;26.16
71151;BME280;59071;42.138;24.768;2023-09-19T11:29:31;99737.31;;;34.92;25.07
71151;BME280;59071;42.138;24.768;2023-09-19T11:31:58;99742.97;;;34.56;25.48
71151;BME280;59071;42.138;24.768;2023-09-19T11:39:39;99720.69;;;35.11;24.28
71151;BME280;59071;42.138;24.768;2023-09-19T11:48:05;99707.13;;;32.83;26.37
71151;BME280;59071;42.138;24.768;2023-09-19T11:50:32;99708.50;;;33.21;26.38
71151;BME280;59071;42.138;24.768;2023-09-19T11:53:00;99705.97;;;33.83;25.42
71151;BME280;59071;42.138;24.768;2023-09-19T11:55:28;99693.44;;;33.85;25.73
71151;BME280;59071;42.138;24.768;2023-09-19T11:57:57;99700.44;;;33.63;25.91
71151;BME280;59071;42.138;24.768;2023-09-19T12:00:24;99689.59;;;34.29;25.42
71151;BME280;59071;42.138;24.768;2023-09-19T12:02:55;99682.41;;;34.67;24.99
71151;BME280;59071;42.138;24.768;2023-09-19T12:05:30;99684.66;;;34.81;24.58
71151;BME280;59071;42.138;24.768;2023-09-19T12:07:58;99681.56;;;34.86;24.23
71151;BME280;59071;42.138;24.768;2023-09-19T12:10:24;99680.56;;;34.75;24.68
71151;BME280;59071;42.138;24.768;2023-09-19T12:12:50;99672.44;;;35.09;24.90
71151;BME280;59071;42.138;24.768;2023-09-19T12:15:26;99668.34;;;35.22;24.92
71151;BME280;59071;42.138;24.768;2023-09-19T12:17:54;99663.81;;;34.64;24.93
71151;BME280;59071;42.138;24.768;2023-09-19T12:20:19;99669.25;;;34.37;25.35
71151;BME280;59071;42.138;24.768;2023-09-19T12:22:46;99665.78;;;34.44;25.00
71151;BME280;59071;42.138;24.768;2023-09-19T12:25:15;99670.84;;;34.81;24.69
71151;BME280;59071;42.138;24.768;2023-09-19T12:27:49;99664.13;;;35.32;24.18
71151;BME280;59071;42.138;24.768;2023-09-19T12:30:27;99662.44;;;35.50;24.12
71151;BME280;59071;42.138;24.768;2023-09-19T12:32:53;99669.72;;;35.35;24.41
71151;BME280;59071;42.138;24.768;2023-09-19T12:35:29;99663.44;;;35.38;24.02
71151;BME280;59071;42.138;24.768;2023-09-19T12:37:55;99654.91;;;35.47;24.24
71151;BME280;59071;42.138;24.768;2023-09-19T12:40:22;99657.03;;;35.61;23.84
71151;BME280;59071;42.138;24.768;2023-09-19T12:42:53;99657.84;;;35.61;23.75
71151;BME280;59071;42.138;24.768;2023-09-19T12:45:20;99655.63;;;35.71;23.66
71151;BME280;59071;42.138;24.768;2023-09-19T12:51:02;99643.63;;;35.63;23.59
71151;BME280;59071;42.138;24.768;2023-09-19T12:53:32;99633.03;;;35.38;24.11
71151;BME280;59071;42.138;24.768;2023-09-19T12:55:59;99639.25;;;35.32;23.80
71151;BME280;59071;42.138;24.768;2023-09-19T12:58:25;99642.13;;;35.39;24.55
71151;BME280;59071;42.138;24.768;2023-09-19T13:00:50;99631.72;;;35.59;24.47
71151;BME280;59071;42.138;24.768;2023-09-19T13:03:26;99632.19;;;35.65;23.42
71151;BME280;59071;42.138;24.768;2023-09-19T13:05:59;99637.31;;;35.66;22.98
71151;BME280;59071;42.138;24.768;2023-09-19T13:08:37;99631.06;;;34.89;24.36
71151;BME280;59071;42.138;24.768;2023-09-19T13:11:12;99632.03;;;34.74;25.00
71151;BME280;59071;42.138;24.768;2023-09-19T13:13:45;99630.81;;;34.71;24.78
71151;BME280;59071;42.138;24.768;2023-09-19T13:16:14;99626.22;;;34.36;24.86
71151;BME280;59071;42.138;24.768;2023-09-19T13:18:53;99627.94;;;34.44;25.00
71151;BME280;59071;42.138;24.768;2023-09-19T13:21:32;99629.16;;;34.47;24.95
71151;BME280;59071;42.138;24.768;2023-09-19T13:24:24;99621.69;;;34.71;24.35
71151;BME280;59071;42.138;24.768;2023-09-19T13:26:53;99620.63;;;34.13;25.34
71151;BME280;59071;42.138;24.768;2023-09-19T13:29:18;99617.00;;;34.28;25.54
71151;BME280;59071;42.138;24.768;2023-09-19T13:31:51;99616.38;;;34.16;25.74
71151;BME280;59071;42.138;24.768;2023-09-19T13:34:19;99620.19;;;34.54;24.35
71151;BME280;59071;42.138;24.768;2023-09-19T13:36:45;99609.69;;;34.17;24.44
71151;BME280;59071;42.138;24.768;2023-09-19T13:39:14;99603.81;;;33.99;24.80
71151;BME280;59071;42.138;24.768;2023-09-19T13:41:40;99607.00;;;33.26;25.87
71151;BME280;59071;42.138;24.768;2023-09-19T13:44:08;99599.03;;;33.05;26.15
71151;BME280;59071;42.138;24.768;2023-09-19T13:46:36;99610.28;;;33.32;25.65
71151;BME280;59071;42.138;24.768;2023-09-19T13:49:01;99600.69;;;33.26;25.80